Airfield :
LOGIN :

Register | Disclaimer

   EN    FR    IT 

 










Legend :    VFR   Marginal VFR   IFR   Intensive IFR   Very Intensive IFR
Visi :
Ceiling :
>= 8 km
>= 3000ft
5 to 8 km
1000 to 3000 ft
1500m to 5 km
500 to 1000 ft
800 to 1500m
200 to 500 ft
< 800m
< 200 ft
Symbols :   Thunderstorms  Fog  Heavy snow  Heavy precipitations  Wind > 20 kt
SIGMETs :     Misc.  Thunderstorms  Icing  Turbulence  Mountain Waves  Volcanic Ashes






- Airport Elevation : 1682 ft
- IATA code : VIT


LEVT - Vitoria Gasteiz

CURRENT METAR :
  • 161900Z 25005KT 9999 FEW045 SCT075 17/08 Q1016

EXPIRED METARs :
  • 161830Z 24006KT 200V280 9999 FEW045 SCT075 17/07 Q1016
  • 161800Z 25008KT 200V280 9999 FEW050 SCT075 18/07 Q1015
  • 161730Z 23011KT 200V260 9999 FEW045 SCT075 17/07 Q1015
  • 161700Z 22012KT 9999 FEW045 BKN075 18/07 Q1015
  • 161630Z 22009KT 200V260 9999 FEW045 BKN075 19/07 Q1015
  • 161600Z 23014KT 9999 FEW045 BKN070 18/08 Q1015

TAF TAF LEVT
Valid from the 16 at 18:00 until the 17 at 18:00 UTC


161700Z 1618/1718 22009KT 9999 SCT050 TX19/1715Z TN10/1708Z
PROB30
TEMPO 1618/1619 22018G30KT
TEMPO 1701/1709 3000 RA
TEMPO 1712/1718 24015G25KT



MET'MAP, your aeronautical weather chart ! - Copyright ORBIFLY December 2007 - Disclaimer

ORBIFLY MET'MAP TEAM :

Programming & Development : Alexandra Zaïnal
Concept & Development : Baudouin d'Aumeries
Co-Development & Prog : Marc-Olivier Méhu
Technical & hardware support : Manuel Goepfert

Contact : metmap@orbifly.com




SOURCES & CREDITS :

   NOAA